Time;durP1;ratioP1;P1;durP2;ratioP2;P2;SDS_P1;SDS_P2;PMS_P1;PMS_P2;Temp;Humidity;BMP_temperature;BMP_pressure;BME280_temperature;BME280_humidity;BME280_pressure;Samples;Min_cycle;Max_cycle;Signal;HPM_P1;HPM_P2
2024/01/05 05:35:35;;;;;;;6.30;2.90;;;1.30;99.90;;;;;;7596777;19;20383;-73
2024/01/05 05:38:08;;;;;;;5.60;2.77;;;1.40;99.90;;;;;;7607555;19;20019;-75
2024/01/05 05:40:40;;;;;;;7.97;3.10;;;1.40;99.90;;;;;;7618735;19;20283;-75
2024/01/05 05:43:12;;;;;;;8.73;2.72;;;1.40;99.90;;;;;;7615220;19;20014;-75
2024/01/05 05:45:45;;;;;;;5.18;4.03;;;1.50;99.90;;;;;;7590576;19;20912;-73
2024/01/05 05:48:17;;;;;;;6.05;3.20;;;1.50;99.90;;;;;;7578693;19;20018;-74
2024/01/05 05:50:50;;;;;;;5.85;3.80;;;1.70;99.90;;;;;;7602002;19;20098;-73
2024/01/05 05:53:22;;;;;;;4.18;3.10;;;1.70;99.90;;;;;;7598499;19;20064;-74
2024/01/05 05:55:54;;;;;;;3.85;2.72;;;1.70;99.90;;;;;;7608146;19;20478;-74
2024/01/05 05:58:27;;;;;;;5.50;3.20;;;1.80;99.90;;;;;;7603435;19;20490;-75
2024/01/05 06:00:59;;;;;;;5.17;2.97;;;1.80;99.90;;;;;;7591673;19;20025;-71
2024/01/05 06:03:32;;;;;;;7.43;3.60;;;1.80;99.90;;;;;;7607357;19;20018;-71
2024/01/05 06:06:16;;;;;;;3.90;2.40;;;1.90;99.90;;;;;;7614646;19;20099;-72
2024/01/05 06:08:51;;;;;;;8.55;3.65;;;2.00;99.90;;;;;;7620453;19;20018;-70
2024/01/05 06:11:26;;;;;;;4.05;2.90;;;2.00;99.90;;;;;;7600353;19;20018;-71
2024/01/05 06:13:59;;;;;;;6.53;3.67;;;2.00;99.90;;;;;;7612104;19;20808;-71
2024/01/05 06:16:31;;;;;;;3.20;2.20;;;2.00;99.90;;;;;;7590437;19;20018;-72
2024/01/05 06:19:04;;;;;;;3.45;3.00;;;2.10;99.90;;;;;;7595607;19;20033;-73
2024/01/05 06:21:36;;;;;;;4.43;2.92;;;2.10;99.90;;;;;;7603175;19;20029;-71
2024/01/05 06:24:09;;;;;;;7.20;3.03;;;2.00;99.90;;;;;;7598809;19;20542;-71
2024/01/05 06:26:41;;;;;;;4.70;2.63;;;2.00;99.90;;;;;;7612892;19;21376;-71
2024/01/05 06:29:14;;;;;;;6.75;2.67;;;2.10;99.90;;;;;;7602532;19;20089;-72
2024/01/05 06:31:46;;;;;;;4.25;3.35;;;2.10;99.90;;;;;;7610769;19;20022;-72
2024/01/05 06:34:19;;;;;;;5.13;2.70;;;2.10;99.90;;;;;;7604348;19;20022;-72
2024/01/05 06:36:52;;;;;;;7.87;3.47;;;2.10;99.90;;;;;;7586434;19;20018;-72
2024/01/05 06:39:25;;;;;;;7.60;3.78;;;2.00;99.90;;;;;;7593256;19;20274;-73
2024/01/05 06:41:57;;;;;;;3.80;2.70;;;2.10;99.90;;;;;;7593857;19;20026;-71
2024/01/05 06:44:29;;;;;;;5.47;3.97;;;2.20;99.90;;;;;;7605466;19;20547;-72
2024/01/05 06:47:02;;;;;;;9.65;4.68;;;2.30;99.90;;;;;;7546285;19;20025;-74
2024/01/05 06:49:34;;;;;;;7.30;4.00;;;2.30;99.90;;;;;;7575103;19;20025;-72
2024/01/05 06:52:07;;;;;;;8.75;4.13;;;2.30;99.90;;;;;;7572434;19;20017;-72
2024/01/05 06:54:40;;;;;;;5.75;4.03;;;2.30;99.90;;;;;;7563188;19;20250;-73
2024/01/05 06:57:12;;;;;;;9.65;3.80;;;2.30;99.90;;;;;;7575018;19;20022;-73
2024/01/05 06:59:44;;;;;;;6.68;3.35;;;2.30;99.90;;;;;;7587680;19;20015;-73
2024/01/05 07:02:17;;;;;;;6.55;3.15;;;2.30;99.90;;;;;;7554028;19;21489;-72
2024/01/05 07:04:50;;;;;;;13.15;7.13;;;2.30;99.90;;;;;;7570358;19;21202;-71
2024/01/05 07:07:22;;;;;;;13.77;6.43;;;3.40;99.90;;;;;;7591906;19;20408;-72
2024/01/05 07:09:55;;;;;;;25.77;13.68;;;2.30;99.90;;;;;;7588717;19;20849;-71
2024/01/05 07:12:27;;;;;;;19.75;9.57;;;2.20;99.90;;;;;;7595983;19;20074;-72
2024/01/05 07:15:00;;;;;;;10.75;5.57;;;2.20;99.90;;;;;;7580588;19;20033;-72
2024/01/05 07:17:34;;;;;;;11.52;6.10;;;2.30;99.90;;;;;;7596006;19;20018;-71
2024/01/05 07:20:07;;;;;;;12.38;6.47;;;2.30;99.90;;;;;;7583869;19;20014;-72
2024/01/05 07:22:40;;;;;;;12.02;5.78;;;2.30;99.90;;;;;;7583290;19;20019;-71
2024/01/05 07:25:12;;;;;;;6.53;3.35;;;2.40;99.90;;;;;;7582874;19;20018;-71
2024/01/05 07:27:44;;;;;;;7.30;4.00;;;2.50;99.90;;;;;;7596772;19;20026;-72
2024/01/05 07:30:17;;;;;;;5.70;3.55;;;2.40;99.90;;;;;;7573170;19;20767;-71
2024/01/05 07:33:09;;;;;;;7.13;3.67;;;2.50;99.90;;;;;;7581865;19;21069;-72
2024/01/05 07:35:41;;;;;;;12.23;6.40;;;2.50;99.90;;;;;;7563794;19;20019;-71
2024/01/05 07:38:14;;;;;;;6.45;3.30;;;2.40;99.90;;;;;;7564270;19;20018;-72
2024/01/05 07:40:47;;;;;;;;;;;2.50;99.90;;;;;;7576466;19;20614;-72
2024/01/05 07:43:19;;;;;;;5.50;2.97;;;2.60;99.90;;;;;;7554125;19;19926;-72
2024/01/05 07:45:52;;;;;;;11.80;3.07;;;2.70;99.90;;;;;;7573566;19;20011;-72
2024/01/05 07:48:24;;;;;;;6.45;2.90;;;2.60;99.90;;;;;;7564581;19;20319;-72
2024/01/05 07:50:57;;;;;;;3.67;2.95;;;2.70;99.90;;;;;;7562888;19;20022;-72
2024/01/05 07:53:30;;;;;;;5.82;3.58;;;2.70;99.90;;;;;;7576226;19;20089;-72
2024/01/05 07:56:03;;;;;;;6.90;3.65;;;2.80;99.90;;;;;;7562756;19;20018;-72
2024/01/05 07:58:35;;;;;;;;;;;2.80;99.90;;;;;;7551357;19;20018;-72
2024/01/05 08:01:13;;;;;;;6.75;3.63;;;2.90;99.90;;;;;;7529068;19;19923;-73
2024/01/05 08:03:47;;;;;;;4.93;2.65;;;2.90;99.90;;;;;;7548742;19;20014;-72
2024/01/05 08:06:20;;;;;;;6.88;2.72;;;2.90;99.90;;;;;;7561298;19;20103;-71
2024/01/05 08:08:53;;;;;;;3.70;2.50;;;3.00;99.90;;;;;;7562916;19;20239;-71
2024/01/05 08:11:26;;;;;;;;;;;3.10;99.90;;;;;;7533561;19;20010;-72
2024/01/05 08:13:58;;;;;;;4.78;3.03;;;3.10;99.90;;;;;;7566622;19;19925;-72
2024/01/05 08:16:31;;;;;;;7.05;3.10;;;3.10;99.90;;;;;;7557900;19;20056;-71
2024/01/05 08:19:03;;;;;;;7.32;3.10;;;3.10;99.90;;;;;;7570059;19;20021;-71
2024/01/05 08:21:35;;;;;;;5.38;3.03;;;3.20;99.90;;;;;;7560147;19;20642;-72
2024/01/05 08:24:09;;;;;;;;;;;3.20;99.90;;;;;;7551798;19;20017;-71
2024/01/05 08:26:43;;;;;;;5.88;3.20;;;3.30;99.90;;;;;;7568619;19;19918;-73
2024/01/05 08:29:18;;;;;;;9.02;3.75;;;3.40;99.90;;;;;;7521911;19;20064;-71
2024/01/05 08:31:52;;;;;;;6.28;2.83;;;3.40;99.90;;;;;;7553474;19;20003;-73
2024/01/05 08:34:25;;;;;;;;;;;3.40;99.90;;;;;;7527703;19;20102;-71
2024/01/05 08:36:57;;;;;;;6.53;2.97;;;3.50;99.90;;;;;;7525014;19;19930;-71
2024/01/05 08:39:30;;;;;;;5.97;3.03;;;3.60;99.90;;;;;;7566849;19;20022;-71
2024/01/05 08:42:02;;;;;;;7.68;3.17;;;3.60;99.90;;;;;;7554877;19;20022;-72
2024/01/05 08:44:38;;;;;;;6.25;3.80;;;3.60;99.90;;;;;;7557654;19;20030;-73
2024/01/05 08:47:11;;;;;;;6.85;3.05;;;3.60;99.90;;;;;;7554928;19;20018;-72
2024/01/05 08:49:44;;;;;;;6.32;3.70;;;3.70;99.90;;;;;;7538767;19;20864;-72
2024/01/05 08:52:16;;;;;;;7.13;3.65;;;3.80;99.90;;;;;;7535063;19;22023;-73
2024/01/05 08:54:49;;;;;;;6.32;2.65;;;3.90;99.90;;;;;;7548538;19;20010;-74
2024/01/05 08:57:22;;;;;;;5.40;2.85;;;3.90;99.90;;;;;;7545774;19;20015;-72
2024/01/05 08:59:54;;;;;;;7.75;2.95;;;4.00;99.90;;;;;;7545747;19;20018;-74
2024/01/05 09:02:27;;;;;;;8.10;3.20;;;4.00;99.90;;;;;;7523157;19;20062;-73
2024/01/05 09:05:00;;;;;;;5.15;3.03;;;4.10;99.90;;;;;;7522917;19;20535;-74
2024/01/05 09:07:33;;;;;;;4.53;2.97;;;4.20;99.90;;;;;;7490562;19;20239;-72
2024/01/05 09:10:10;;;;;;;4.97;2.78;;;4.20;99.90;;;;;;7540373;19;20775;-71
2024/01/05 09:12:42;;;;;;;5.03;2.72;;;4.30;99.90;;;;;;7563403;19;20733;-71
2024/01/05 09:15:16;;;;;;;5.47;2.67;;;4.40;99.90;;;;;;7559143;19;20018;-71
2024/01/05 09:17:48;;;;;;;4.68;2.75;;;4.40;99.90;;;;;;7572127;19;20583;-71
2024/01/05 09:20:20;;;;;;;4.53;2.63;;;4.50;99.90;;;;;;7572766;19;20361;-72
2024/01/05 09:22:53;;;;;;;6.13;2.55;;;4.50;99.90;;;;;;7572217;19;20014;-72
2024/01/05 09:25:25;;;;;;;4.90;2.63;;;4.50;99.90;;;;;;7548211;19;20628;-71
2024/01/05 09:28:00;;;;;;;4.18;2.60;;;4.60;99.90;;;;;;7526254;19;20021;-74
2024/01/05 09:30:33;;;;;;;7.60;3.42;;;4.60;99.90;;;;;;7541472;19;20921;-73
2024/01/05 09:33:06;;;;;;;9.32;3.38;;;4.60;99.90;;;;;;7539656;19;20117;-72
2024/01/05 09:35:39;;;;;;;5.50;3.00;;;4.70;99.90;;;;;;7546629;19;20041;-74
2024/01/05 09:38:31;;;;;;;6.03;3.00;;;4.80;99.90;;;;;;7541572;19;20010;-73
2024/01/05 09:41:23;;;;;;;9.35;4.65;;;4.80;99.90;;;;;;7547092;19;20011;-73
2024/01/05 09:44:16;;;;;;;7.85;4.35;;;4.90;99.90;;;;;;7562004;19;20041;-72
2024/01/05 09:47:10;;;;;;;9.70;5.18;;;5.00;99.90;;;;;;7527892;19;20018;-73
2024/01/05 09:50:04;;;;;;;9.27;3.75;;;5.10;99.90;;;;;;7487664;19;20062;-72
2024/01/05 09:52:58;;;;;;;8.30;4.22;;;5.20;99.90;;;;;;7495981;19;20017;-73
2024/01/05 09:55:50;;;;;;;6.38;3.30;;;5.30;99.90;;;;;;7537827;19;20014;-76
2024/01/05 09:58:45;;;;;;;10.73;3.50;;;5.40;99.90;;;;;;7535260;19;20018;-72
2024/01/05 10:01:39;;;;;;;5.15;2.80;;;5.50;99.90;;;;;;7515440;19;21029;-74
2024/01/05 10:04:33;;;;;;;11.32;3.00;;;5.60;99.90;;;;;;7536864;19;20659;-74
2024/01/05 10:07:25;;;;;;;9.20;3.38;;;5.70;99.90;;;;;;7528368;19;20014;-74
2024/01/05 10:10:18;;;;;;;11.32;6.70;;;5.70;99.90;;;;;;7519544;19;20592;-72
2024/01/05 10:13:11;;;;;;;21.15;12.23;;;5.80;99.90;;;;;;7558232;19;20095;-73
2024/01/05 10:16:04;;;;;;;9.00;5.80;;;5.90;99.90;;;;;;7553739;19;20364;-73
2024/01/05 10:19:10;;;;;;;12.48;7.32;;;6.00;99.90;;;;;;7540401;19;20107;-72
2024/01/05 10:22:13;;;;;;;13.45;4.03;;;6.00;99.90;;;;;;7561714;19;20014;-75
2024/01/05 10:25:22;;;;;;;5.35;3.95;;;6.10;99.90;;;;;;7549843;19;20020;-72
2024/01/05 10:28:33;;;;;;;6.18;3.10;;;6.20;99.90;;;;;;7553561;19;20472;-74
2024/01/05 10:31:25;;;;;;;6.22;3.90;;;6.20;99.90;;;;;;7529958;19;20014;-72
2024/01/05 10:34:18;;;;;;;9.98;4.43;;;6.30;99.90;;;;;;7560928;19;20872;-73
2024/01/05 10:37:11;;;;;;;9.15;4.88;;;6.40;99.90;;;;;;7538068;19;20018;-76
2024/01/05 10:40:04;;;;;;;7.20;3.25;;;6.40;99.90;;;;;;7536463;19;20113;-74
2024/01/05 10:43:10;;;;;;;3.83;2.65;;;6.50;99.90;;;;;;7562996;19;21152;-73
2024/01/05 10:46:04;;;;;;;4.82;2.80;;;6.60;99.90;;;;;;7527334;19;20814;-73
2024/01/05 10:48:56;;;;;;;5.90;2.97;;;6.70;99.90;;;;;;7559016;19;20015;-74
2024/01/05 10:51:50;;;;;;;10.82;3.08;;;6.80;99.90;;;;;;7552054;19;20162;-74
2024/01/05 10:54:45;;;;;;;6.03;2.83;;;6.80;99.90;;;;;;7494406;19;20011;-73
2024/01/05 10:57:41;;;;;;;12.48;5.38;;;6.90;99.90;;;;;;7518459;19;20067;-73
2024/01/05 11:00:35;;;;;;;9.77;3.78;;;6.90;99.90;;;;;;7533900;19;22469;-73
2024/01/05 11:03:43;;;;;;;11.00;4.70;;;6.90;99.90;;;;;;7560185;19;20073;-72
2024/01/05 11:06:36;;;;;;;8.30;4.57;;;7.00;99.90;;;;;;7565486;19;20014;-73
2024/01/05 11:09:42;;;;;;;10.43;4.13;;;7.10;99.90;;;;;;7567227;19;20010;-73
2024/01/05 11:13:00;;;;;;;10.75;4.65;;;7.10;99.90;;;;;;7553751;19;20022;-72
2024/01/05 11:16:21;;;;;;;13.43;4.82;;;7.10;99.90;;;;;;7521598;19;20011;-74
2024/01/05 11:19:42;;;;;;;9.10;4.40;;;7.10;99.90;;;;;;7541077;19;20274;-75
2024/01/05 11:22:37;;;;;;;15.43;7.88;;;7.10;99.90;;;;;;7525339;19;20595;-74
2024/01/05 11:25:29;;;;;;;19.60;8.63;;;7.20;99.90;;;;;;7556067;19;20010;-73
2024/01/05 11:28:38;;;;;;;18.67;7.50;;;7.20;99.90;;;;;;7562300;19;20029;-73
2024/01/05 11:31:50;;;;;;;12.93;6.93;;;7.30;99.90;;;;;;7565530;19;20003;-73
2024/01/05 11:34:42;;;;;;;13.23;6.00;;;7.30;99.90;;;;;;7556092;19;20625;-73
2024/01/05 11:37:35;;;;;;;12.98;5.78;;;7.30;99.90;;;;;;7547300;19;20471;-73
2024/01/05 11:40:29;;;;;;;9.27;4.63;;;7.50;99.90;;;;;;7544202;19;20022;-73
2024/01/05 11:43:28;;;;;;;;;;;7.50;99.90;;;;;;7526072;19;20014;-75
2024/01/05 11:46:51;;;;;;;9.48;4.75;;;7.50;99.90;;;;;;7541086;19;20621;-74
2024/01/05 11:49:45;;;;;;;8.02;3.92;;;7.60;99.90;;;;;;7552904;19;20930;-73
2024/01/05 11:52:37;;;;;;;8.88;3.67;;;7.70;99.90;;;;;;7545021;19;20789;-75
2024/01/05 11:55:35;;;;;;;11.10;3.60;;;7.70;99.90;;;;;;7545550;19;20595;-73
2024/01/05 11:58:35;;;;;;;10.00;3.22;;;7.70;99.90;;;;;;7545307;19;20026;-74
2024/01/05 12:01:28;;;;;;;18.67;4.22;;;7.80;99.90;;;;;;7550905;19;20030;-74
2024/01/05 12:04:21;;;;;;;10.60;3.78;;;7.90;99.90;;;;;;7546953;19;20021;-73
2024/01/05 12:07:19;;;;;;;11.57;3.78;;;8.00;99.90;;;;;;7539028;19;20106;-71
2024/01/05 12:10:12;;;;;;;11.38;4.10;;;8.10;99.90;;;;;;7550179;19;20507;-70
2024/01/05 12:13:05;;;;;;;6.32;3.33;;;8.20;99.90;;;;;;7519218;19;20086;-74
2024/01/05 12:16:00;;;;;;;24.58;7.10;;;8.30;99.90;;;;;;7473351;19;20030;-74
2024/01/05 12:18:53;;;;;;;19.63;6.32;;;8.30;99.90;;;;;;7507318;19;20053;-73
2024/01/05 12:21:52;;;;;;;14.48;6.25;;;8.40;99.90;;;;;;7525869;19;20094;-74
2024/01/05 12:24:45;;;;;;;13.25;5.90;;;8.40;99.90;;;;;;7543220;19;20019;-74
2024/01/05 12:27:39;;;;;;;10.57;4.87;;;8.40;99.90;;;;;;7542206;19;20745;-73
2024/01/05 12:30:33;;;;;;;8.40;4.22;;;8.50;99.90;;;;;;7536068;19;20255;-73
2024/01/05 12:33:31;;;;;;;8.93;4.28;;;8.50;99.90;;;;;;7571805;19;20249;-75
2024/01/05 12:36:31;;;;;;;12.20;6.07;;;8.60;99.90;;;;;;7542060;19;22046;-74
2024/01/05 12:39:24;;;;;;;9.55;5.30;;;8.60;99.90;;;;;;7560652;19;20018;-74
2024/01/05 12:42:17;;;;;;;8.68;3.25;;;8.60;99.90;;;;;;7562251;19;20622;-74
2024/01/05 12:45:10;;;;;;;8.10;3.72;;;8.50;99.90;;;;;;7565351;19;20017;-73
2024/01/05 12:48:12;;;;;;;8.20;4.10;;;8.50;99.90;;;;;;7555591;19;20010;-73
2024/01/05 12:51:19;;;;;;;6.97;3.95;;;8.50;99.90;;;;;;7551371;19;20029;-73
2024/01/05 12:54:12;;;;;;;8.43;3.33;;;8.50;99.90;;;;;;7535983;19;20019;-74
2024/01/05 12:57:05;;;;;;;9.02;3.53;;;8.50;99.90;;;;;;7523396;19;20007;-74
2024/01/05 13:00:08;;;;;;;10.52;3.78;;;8.40;99.90;;;;;;7546730;19;20025;-72
2024/01/05 13:03:01;;;;;;;6.03;2.80;;;8.40;99.90;;;;;;7532639;19;20041;-73
2024/01/05 13:05:53;;;;;;;5.50;3.13;;;8.40;99.90;;;;;;7558368;19;20014;-74
2024/01/05 13:08:46;;;;;;;5.00;2.65;;;8.30;99.90;;;;;;7547536;19;20025;-73
2024/01/05 13:11:38;;;;;;;9.80;3.70;;;8.30;99.90;;;;;;7536632;19;20500;-72
2024/01/05 13:14:30;;;;;;;8.25;3.38;;;8.30;99.90;;;;;;7547978;19;20010;-73
2024/01/05 13:17:22;;;;;;;12.38;5.57;;;8.40;99.90;;;;;;7569689;19;20014;-73
2024/01/05 13:20:24;;;;;;;17.83;6.22;;;8.40;99.90;;;;;;7547239;19;20685;-73
2024/01/05 13:23:16;;;;;;;5.60;3.65;;;8.40;99.90;;;;;;7522364;19;20809;-74
2024/01/05 13:26:10;;;;;;;12.25;5.28;;;8.50;99.90;;;;;;7541009;19;20981;-73
2024/01/05 13:29:02;;;;;;;13.18;5.30;;;8.50;99.90;;;;;;7527594;19;20034;-74
2024/01/05 13:31:54;;;;;;;17.55;9.02;;;8.40;99.90;;;;;;7537549;19;20027;-73
2024/01/05 13:34:47;;;;;;;10.55;6.07;;;8.40;99.90;;;;;;7554122;19;21114;-73
2024/01/05 13:37:40;;;;;;;13.18;6.80;;;8.30;99.90;;;;;;7551613;19;20018;-72
2024/01/05 13:40:32;;;;;;;31.85;12.68;;;8.20;99.90;;;;;;7526351;19;20041;-73
2024/01/05 13:43:25;;;;;;;34.95;15.27;;;8.20;99.90;;;;;;7549988;19;20014;-74
2024/01/05 13:46:17;;;;;;;34.30;14.00;;;8.20;99.90;;;;;;7547956;19;20010;-73
2024/01/05 13:49:10;;;;;;;31.45;12.63;;;8.10;99.90;;;;;;7533099;19;20976;-73
2024/01/05 13:52:03;;;;;;;20.58;9.88;;;8.00;99.90;;;;;;7556259;19;20045;-73
2024/01/05 13:54:55;;;;;;;17.20;9.10;;;7.90;99.90;;;;;;7551997;19;20138;-74
2024/01/05 13:57:48;;;;;;;19.45;7.90;;;7.90;99.90;;;;;;7533059;19;20019;-73
2024/01/05 14:00:40;;;;;;;15.88;8.27;;;7.90;99.90;;;;;;7561774;19;20014;-74
2024/01/05 14:03:33;;;;;;;15.15;7.65;;;7.90;99.90;;;;;;7533310;19;20104;-74
2024/01/05 14:06:25;;;;;;;50.45;22.25;;;7.80;99.90;;;;;;7535678;19;20023;-74
2024/01/05 14:09:18;;;;;;;71.13;34.97;;;7.70;99.90;;;;;;7555247;19;21287;-74
2024/01/05 14:12:11;;;;;;;31.00;17.88;;;7.50;99.90;;;;;;7546134;19;20361;-74
2024/01/05 14:15:05;;;;;;;46.13;24.15;;;7.50;99.90;;;;;;7546292;19;20013;-73
2024/01/05 14:17:58;;;;;;;39.17;20.95;;;7.50;99.90;;;;;;7522567;19;20074;-74
2024/01/05 14:20:51;;;;;;;15.15;8.75;;;7.40;99.90;;;;;;7549126;19;21132;-73
2024/01/05 14:23:43;;;;;;;13.93;6.75;;;7.30;99.90;;;;;;7550234;19;20006;-73
2024/01/05 14:26:37;;;;;;;16.52;8.02;;;7.30;99.90;;;;;;7546207;19;20018;-73
2024/01/05 14:29:29;;;;;;;12.52;6.93;;;7.30;99.90;;;;;;7549405;19;21344;-72
2024/01/05 14:32:21;;;;;;;11.88;6.80;;;7.40;99.90;;;;;;7561637;19;20017;-73
2024/01/05 14:35:13;;;;;;;13.57;6.97;;;7.40;99.90;;;;;;7565783;19;20422;-73
2024/01/05 14:38:06;;;;;;;16.38;8.32;;;7.30;99.90;;;;;;7538547;19;20023;-72
2024/01/05 14:40:58;;;;;;;12.55;6.97;;;7.30;99.90;;;;;;7578557;19;20625;-73
2024/01/05 14:43:50;;;;;;;11.13;6.72;;;7.30;99.90;;;;;;7561582;19;20570;-73
2024/01/05 14:46:42;;;;;;;11.90;6.10;;;7.30;99.90;;;;;;7571368;19;20010;-73
2024/01/05 14:49:35;;;;;;;12.80;5.88;;;7.20;99.90;;;;;;7568493;19;20017;-72
2024/01/05 14:52:27;;;;;;;9.18;5.93;;;7.20;99.90;;;;;;7551806;19;20018;-73
2024/01/05 14:55:19;;;;;;;12.07;4.38;;;7.20;99.90;;;;;;7570372;19;20043;-72
2024/01/05 14:58:12;;;;;;;10.63;3.97;;;7.10;99.90;;;;;;7567521;19;20392;-72
2024/01/05 15:01:04;;;;;;;10.20;3.72;;;7.10;99.90;;;;;;7557930;19;20010;-72
2024/01/05 15:03:57;;;;;;;15.82;6.03;;;7.10;99.90;;;;;;7555099;19;20014;-73
2024/01/05 15:06:50;;;;;;;12.52;5.57;;;7.10;99.90;;;;;;7566220;19;20027;-72
2024/01/05 15:09:42;;;;;;;17.20;5.88;;;7.10;99.90;;;;;;7556841;19;20018;-73
2024/01/05 15:12:37;;;;;;;13.40;4.90;;;7.00;99.90;;;;;;7543885;19;20007;-72
2024/01/05 15:15:30;;;;;;;11.50;5.43;;;7.00;99.90;;;;;;7548039;19;20022;-72
2024/01/05 15:18:24;;;;;;;13.60;5.75;;;7.00;99.90;;;;;;7556852;19;20587;-71
2024/01/05 15:21:24;;;;;;;9.55;5.65;;;7.00;99.90;;;;;;7548515;19;20022;-73
2024/01/05 15:24:17;;;;;;;13.98;6.35;;;7.00;99.90;;;;;;7546897;19;20990;-72
2024/01/05 15:27:12;;;;;;;11.80;5.50;;;7.00;99.90;;;;;;7561614;19;20127;-72
2024/01/05 15:30:07;;;;;;;13.85;6.38;;;7.10;99.90;;;;;;7560130;19;20015;-72
2024/01/05 15:33:00;;;;;;;12.63;6.40;;;7.00;99.90;;;;;;7555054;19;20038;-73
2024/01/05 15:35:53;;;;;;;13.57;6.32;;;7.00;99.90;;;;;;7554695;19;20033;-73
2024/01/05 15:38:45;;;;;;;13.38;5.93;;;6.90;99.90;;;;;;7553987;19;20006;-73
2024/01/05 15:44:04;;;;;;;14.68;5.80;;;6.90;99.90;;;;;;7576065;19;21700;-71
2024/01/05 15:46:56;;;;;;;17.52;7.43;;;6.80;99.90;;;;;;7606112;19;20010;-71
2024/01/05 15:49:50;;;;;;;13.20;5.75;;;6.70;99.90;;;;;;7619280;19;20014;-71
2024/01/05 15:52:43;;;;;;;15.80;7.43;;;6.70;99.90;;;;;;7610287;19;20106;-71
2024/01/05 15:55:36;;;;;;;14.18;7.68;;;6.70;99.90;;;;;;7602286;19;20102;-71
2024/01/05 15:58:31;;;;;;;13.30;8.10;;;6.80;99.90;;;;;;7593079;19;21326;-71
2024/01/05 16:01:24;;;;;;;23.48;10.10;;;6.80;99.90;;;;;;7598908;19;20014;-71
2024/01/05 16:04:16;;;;;;;13.20;8.38;;;6.90;99.90;;;;;;7610231;19;20040;-71
2024/01/05 16:07:09;;;;;;;18.55;9.25;;;6.90;99.90;;;;;;7616215;19;20015;-72
2024/01/05 16:10:02;;;;;;;20.67;10.25;;;6.90;99.90;;;;;;7603461;19;20017;-72
2024/01/05 16:12:54;;;;;;;19.45;9.95;;;6.80;99.90;;;;;;7599007;19;20080;-71
2024/01/05 16:15:47;;;;;;;24.55;11.05;;;6.80;99.90;;;;;;7587823;19;20045;-72
2024/01/05 16:18:44;;;;;;;19.67;10.43;;;6.80;99.90;;;;;;7605900;19;20018;-71
2024/01/05 16:21:36;;;;;;;21.75;11.25;;;6.70;99.90;;;;;;7593565;19;20692;-72
2024/01/05 16:24:29;;;;;;;21.15;11.88;;;6.60;99.90;;;;;;7613375;19;20007;-71
2024/01/05 16:27:21;;;;;;;20.92;11.80;;;6.70;99.90;;;;;;7610825;19;20029;-71
2024/01/05 16:30:14;;;;;;;21.33;11.68;;;6.60;99.90;;;;;;7621250;19;20069;-72
2024/01/05 16:33:06;;;;;;;22.88;12.63;;;6.70;99.90;;;;;;7614540;19;20014;-71
2024/01/05 16:35:59;;;;;;;27.27;15.55;;;6.80;99.90;;;;;;7602886;19;20021;-72
2024/01/05 16:38:51;;;;;;;21.63;12.63;;;6.70;99.90;;;;;;7590487;19;20428;-71
2024/01/05 16:41:44;;;;;;;16.63;8.52;;;6.70;99.90;;;;;;7601163;19;20018;-72
2024/01/05 16:44:36;;;;;;;16.00;8.73;;;6.70;99.90;;;;;;7600137;19;21086;-72
2024/01/05 16:47:29;;;;;;;17.80;9.15;;;6.70;99.90;;;;;;7593717;19;20549;-72
2024/01/05 16:50:22;;;;;;;16.80;8.90;;;6.70;99.90;;;;;;7618824;19;20021;-72
2024/01/05 16:53:14;;;;;;;28.35;12.65;;;6.70;99.90;;;;;;7616611;19;20018;-72
2024/01/05 16:56:07;;;;;;;39.20;17.25;;;6.70;99.90;;;;;;7579974;19;20022;-72
2024/01/05 16:59:00;;;;;;;27.63;14.07;;;6.80;99.90;;;;;;7542935;19;20014;-72
2024/01/05 17:01:52;;;;;;;36.20;15.98;;;6.80;99.90;;;;;;7576995;19;20015;-72
2024/01/05 17:04:44;;;;;;;48.90;20.08;;;6.80;99.90;;;;;;7565321;19;20006;-71
2024/01/05 17:07:36;;;;;;;22.52;12.43;;;6.70;99.90;;;;;;7569202;19;20014;-71
2024/01/05 17:10:28;;;;;;;23.88;11.93;;;6.70;99.90;;;;;;7571006;19;20521;-72
2024/01/05 17:13:21;;;;;;;17.15;11.13;;;6.70;99.90;;;;;;7576299;19;20031;-74
2024/01/05 17:16:13;;;;;;;22.38;11.30;;;6.60;99.90;;;;;;7558155;19;20086;-73
2024/01/05 17:19:08;;;;;;;19.35;11.23;;;6.60;99.90;;;;;;7536409;19;20026;-74
2024/01/05 17:22:00;;;;;;;20.45;12.77;;;6.50;99.90;;;;;;7522516;19;20956;-75
2024/01/05 17:24:53;;;;;;;19.75;10.93;;;6.40;99.90;;;;;;7547542;19;20022;-73
2024/01/05 17:27:45;;;;;;;24.67;13.20;;;6.40;99.90;;;;;;7512821;19;20052;-71
2024/01/05 17:30:37;;;;;;;23.25;11.38;;;6.40;99.90;;;;;;7566183;19;20022;-73
2024/01/05 17:33:30;;;;;;;16.25;10.32;;;6.50;99.90;;;;;;7585115;19;20030;-73
2024/01/05 17:36:27;;;;;;;25.77;10.88;;;6.50;99.90;;;;;;7583209;19;20045;-73
2024/01/05 17:39:19;;;;;;;30.95;14.45;;;6.60;99.90;;;;;;7585127;19;20257;-73
2024/01/05 17:42:11;;;;;;;18.15;10.27;;;6.60;99.90;;;;;;7579270;19;20554;-74
2024/01/05 17:45:05;;;;;;;28.70;13.30;;;6.50;99.90;;;;;;7588371;19;20367;-73
2024/01/05 17:47:59;;;;;;;68.13;31.85;;;6.50;99.90;;;;;;7579936;19;20905;-73
2024/01/05 17:50:51;;;;;;;59.97;28.27;;;6.50;99.90;;;;;;7570001;19;20028;-74
2024/01/05 17:53:44;;;;;;;45.97;22.75;;;6.50;99.90;;;;;;7560644;19;20146;-73
2024/01/05 17:56:36;;;;;;;24.65;11.70;;;6.40;99.90;;;;;;7570358;19;20017;-73
2024/01/05 17:59:25;;;;;;;19.10;11.13;;;6.40;99.90;;;;;;7553492;19;20019;-72
2024/01/05 18:01:58;;;;;;;18.75;10.48;;;6.40;99.90;;;;;;7557971;19;20015;-72
2024/01/05 18:04:30;;;;;;;30.13;13.20;;;6.40;99.90;;;;;;7545016;19;20022;-73
2024/01/05 18:07:03;;;;;;;23.10;10.20;;;6.40;99.90;;;;;;7551116;19;20013;-73
2024/01/05 18:09:36;;;;;;;21.38;11.65;;;6.30;99.90;;;;;;7565553;19;20014;-72
2024/01/05 18:12:09;;;;;;;23.98;11.10;;;6.30;99.90;;;;;;7578839;19;20997;-72
2024/01/05 18:14:42;;;;;;;22.67;10.80;;;6.40;99.90;;;;;;7577201;19;20018;-74
2024/01/05 18:17:14;;;;;;;21.38;12.98;;;6.40;99.90;;;;;;7548900;19;20014;-74
2024/01/05 18:19:47;;;;;;;22.80;10.82;;;6.40;99.90;;;;;;7563639;19;20006;-73
2024/01/05 18:22:20;;;;;;;18.75;9.60;;;6.40;99.90;;;;;;7572396;19;20022;-74
2024/01/05 18:24:52;;;;;;;31.63;17.45;;;6.40;99.90;;;;;;7574821;19;20086;-74
2024/01/05 18:27:25;;;;;;;32.08;15.55;;;6.50;99.90;;;;;;7547171;19;20897;-74
2024/01/05 18:30:01;;;;;;;28.80;14.43;;;6.50;99.90;;;;;;7551922;19;20018;-73
2024/01/05 18:32:37;;;;;;;37.88;19.17;;;6.60;99.90;;;;;;7573138;19;20014;-73
2024/01/05 18:35:09;;;;;;;31.27;16.52;;;6.50;99.90;;;;;;7568174;19;20486;-73
2024/01/05 18:37:42;;;;;;;84.20;42.63;;;6.50;99.90;;;;;;7568522;19;20022;-73
2024/01/05 18:40:15;;;;;;;41.97;21.13;;;6.40;99.90;;;;;;7567226;19;20010;-74
2024/01/05 18:42:49;;;;;;;42.85;21.63;;;6.40;99.90;;;;;;7579693;19;20578;-74
2024/01/05 18:45:21;;;;;;;31.83;17.52;;;6.40;99.90;;;;;;7569121;19;21244;-73
2024/01/05 18:47:54;;;;;;;31.10;17.55;;;6.50;99.90;;;;;;7580557;19;20002;-74
2024/01/05 18:50:26;;;;;;;34.58;19.38;;;6.50;99.90;;;;;;7573788;19;20477;-74
2024/01/05 18:52:59;;;;;;;26.40;16.20;;;6.50;99.90;;;;;;7022241;19;10000210;-73
2024/01/05 18:55:31;;;;;;;30.45;15.93;;;6.50;99.90;;;;;;7557594;19;20370;-74
2024/01/05 18:58:03;;;;;;;32.47;17.70;;;6.50;99.90;;;;;;7546439;19;20452;-73
2024/01/05 19:00:36;;;;;;;37.45;20.55;;;6.50;99.90;;;;;;7544193;19;20035;-73
2024/01/05 19:03:09;;;;;;;38.67;21.58;;;6.60;99.90;;;;;;7576868;19;21094;-71
2024/01/05 19:05:42;;;;;;;32.22;19.80;;;6.50;99.90;;;;;;7552160;19;20026;-74
2024/01/05 19:08:14;;;;;;;26.35;14.32;;;6.50;99.90;;;;;;7560520;19;20042;-73
2024/01/05 19:10:49;;;;;;;26.00;14.10;;;6.40;99.90;;;;;;7572983;19;20030;-73
2024/01/05 19:13:22;;;;;;;26.67;12.68;;;6.40;99.90;;;;;;7560213;19;21625;-72
2024/01/05 19:15:54;;;;;;;29.13;14.18;;;6.40;99.90;;;;;;7581569;19;20247;-74
2024/01/05 19:18:27;;;;;;;33.50;14.38;;;6.40;99.90;;;;;;7589732;19;20023;-74
2024/01/05 19:21:02;;;;;;;41.03;18.73;;;6.40;99.90;;;;;;7577700;19;20010;-74
2024/01/05 19:23:34;;;;;;;41.22;19.90;;;6.30;99.90;;;;;;7571568;19;20025;-73
2024/01/05 19:26:07;;;;;;;38.95;20.63;;;6.30;99.90;;;;;;7572734;19;20018;-75
2024/01/05 19:28:39;;;;;;;25.27;15.77;;;6.20;99.90;;;;;;7545601;19;20006;-73
2024/01/05 19:31:11;;;;;;;32.70;16.38;;;6.30;99.90;;;;;;7532341;19;20018;-74
2024/01/05 19:33:44;;;;;;;39.50;21.47;;;6.30;99.90;;;;;;7519796;19;20747;-73
2024/01/05 19:36:16;;;;;;;39.90;22.23;;;6.30;99.90;;;;;;7533118;19;20440;-75
2024/01/05 19:38:49;;;;;;;47.40;20.38;;;6.30;99.90;;;;;;7555450;19;20019;-75
2024/01/05 19:41:45;;;;;;;29.55;16.95;;;6.40;99.90;;;;;;7548739;19;20026;-72
2024/01/05 19:44:19;;;;;;;36.38;19.52;;;6.40;99.90;;;;;;7552647;19;20060;-75
2024/01/05 19:46:52;;;;;;;40.90;22.05;;;6.30;99.90;;;;;;7554680;19;20086;-74
2024/01/05 19:49:26;;;;;;;35.53;18.97;;;6.30;99.90;;;;;;7556758;19;20356;-74
2024/01/05 19:51:59;;;;;;;31.38;17.45;;;6.30;99.90;;;;;;7553285;19;20111;-73
2024/01/05 19:54:32;;;;;;;36.22;18.70;;;6.30;99.90;;;;;;7565166;19;20048;-74
2024/01/05 19:57:05;;;;;;;34.80;19.23;;;6.30;99.90;;;;;;7567136;19;20010;-73
2024/01/05 19:59:38;;;;;;;58.78;26.08;;;6.20;99.90;;;;;;7578300;19;20018;-73